Time;durP1;ratioP1;P1;durP2;ratioP2;P2;SDS_P1;SDS_P2;PMS_P1;PMS_P2;Temp;Humidity;BMP_temperature;BMP_pressure;BME280_temperature;BME280_humidity;BME280_pressure;Samples;Min_cycle;Max_cycle;Signal;HPM_P1;HPM_P2
2021/11/24 00:00:04;;;;;;;17.13;12.00;;;;;;;1.80;77.81;100185.39;1742180;80;21098;-53
2021/11/24 00:02:31;;;;;;;22.33;13.23;;;;;;;1.78;77.88;100182.77;1748905;81;20942;-53
2021/11/24 00:04:57;;;;;;;20.33;14.27;;;;;;;1.78;77.92;100185.42;1775072;79;20906;-52
2021/11/24 00:07:24;;;;;;;20.63;13.87;;;;;;;1.80;78.01;100190.25;1727067;81;20938;-53
2021/11/24 00:09:50;;;;;;;21.73;15.57;;;;;;;1.78;77.91;100193.38;1774238;79;20878;-53
2021/11/24 00:12:17;;;;;;;27.23;14.77;;;;;;;1.77;77.95;100202.67;1776121;79;21082;-53
2021/11/24 00:14:44;;;;;;;18.80;13.80;;;;;;;1.76;77.98;100204.89;1776000;79;20910;-53
2021/11/24 00:17:11;;;;;;;17.33;13.07;;;;;;;1.76;78.00;100199.58;1775191;78;20902;-53
2021/11/24 00:19:37;;;;;;;19.60;13.33;;;;;;;1.75;78.08;100196.05;1750897;80;20866;-53
2021/11/24 00:22:04;;;;;;;23.80;13.43;;;;;;;1.76;78.10;100199.14;1774971;78;20934;-52
2021/11/24 00:24:32;;;;;;;18.77;13.60;;;;;;;1.77;78.10;100207.55;1752635;81;20897;-53
2021/11/24 00:26:59;;;;;;;19.50;13.23;;;;;;;1.76;78.18;100201.80;1752484;81;21060;-53
2021/11/24 00:29:26;;;;;;;25.53;16.43;;;;;;;1.78;78.21;100206.66;1753386;81;20910;-53
2021/11/24 00:31:53;;;;;;;21.83;14.50;;;;;;;1.80;78.31;100202.64;1753157;80;20887;-53
2021/11/24 00:34:19;;;;;;;23.67;15.90;;;;;;;1.82;78.30;100204.41;1751306;81;20886;-52
2021/11/24 00:36:46;;;;;;;23.40;16.40;;;;;;;1.83;78.23;100204.84;1750412;80;21083;-52
2021/11/24 00:39:13;;;;;;;21.33;16.80;;;;;;;1.82;78.22;100210.16;1750369;80;21350;-52
2021/11/24 00:41:39;;;;;;;23.73;16.17;;;;;;;1.80;78.28;100210.60;1748382;80;21374;-52
2021/11/24 00:44:05;;;;;;;26.03;16.70;;;;;;;1.81;78.31;100206.62;1750632;81;21100;-52
2021/11/24 00:46:33;;;;;;;23.00;14.60;;;;;;;1.83;78.35;100206.62;1749953;80;21070;-52
2021/11/24 00:49:00;;;;;;;20.10;13.97;;;;;;;1.83;78.32;100207.94;1746796;80;21093;-52
2021/11/24 00:51:27;;;;;;;19.20;14.73;;;;;;;1.84;78.32;100209.70;1748566;81;21026;-52
2021/11/24 00:53:53;;;;;;;29.23;16.07;;;;;;;1.86;78.38;100214.57;1750561;80;22326;-52
2021/11/24 00:56:20;;;;;;;23.40;15.93;;;;;;;1.87;78.46;100215.02;1748989;81;21082;-52
2021/11/24 00:58:46;;;;;;;21.57;15.30;;;;;;;1.86;78.44;100210.59;1751348;80;21108;-52
2021/11/24 01:01:13;;;;;;;26.90;17.20;;;;;;;1.88;78.45;100224.71;1750226;81;21191;-52
2021/11/24 01:03:40;;;;;;;24.97;16.20;;;;;;;1.87;78.39;100217.67;1748972;80;21632;-52
2021/11/24 01:06:08;;;;;;;21.30;14.83;;;;;;;1.84;78.34;100217.23;1748545;81;21445;-53
2021/11/24 01:08:35;;;;;;;23.27;14.57;;;;;;;1.82;78.36;100218.12;1748156;81;21049;-52
2021/11/24 01:11:02;;;;;;;21.60;13.70;;;;;;;1.80;78.32;100223.43;1749969;81;21115;-52
2021/11/24 01:13:30;;;;;;;20.97;13.53;;;;;;;1.79;78.44;100215.03;1746727;81;21123;-52
2021/11/24 01:15:57;;;;;;;20.43;14.27;;;;;;;1.79;78.53;100219.01;1746942;81;21139;-52
2021/11/24 01:18:23;;;;;;;19.97;12.87;;;;;;;1.81;78.58;100221.22;1744541;80;21132;-53
2021/11/24 01:20:51;;;;;;;20.73;13.27;;;;;;;1.82;78.62;100222.10;1745002;80;21110;-53
2021/11/24 01:23:18;;;;;;;17.80;12.50;;;;;;;1.84;78.72;100224.31;1744317;80;21037;-52
2021/11/24 01:25:44;;;;;;;19.60;13.40;;;;;;;1.85;78.69;100226.96;1743598;80;21697;-52
2021/11/24 01:28:11;;;;;;;19.77;13.37;;;;;;;1.85;78.60;100230.06;1749915;80;21382;-52
2021/11/24 01:30:37;;;;;;;19.53;13.87;;;;;;;1.83;78.57;100223.87;1746990;80;21448;-53
2021/11/24 01:33:04;;;;;;;19.23;11.80;;;;;;;1.80;78.66;100227.41;1743507;80;21025;-53
2021/11/24 01:35:30;;;;;;;20.17;12.60;;;;;;;1.79;78.63;100222.11;1744617;80;21025;-52
2021/11/24 01:37:57;;;;;;;21.33;11.63;;;;;;;1.79;78.68;100220.34;1768966;80;21119;-53
2021/11/24 01:40:24;;;;;;;20.47;12.40;;;;;;;1.80;78.68;100226.09;1772304;79;21049;-53
2021/11/24 01:42:50;;;;;;;18.20;12.03;;;;;;;1.80;78.71;100223.87;1769759;79;21065;-52
2021/11/24 01:45:19;;;;;;;18.83;11.93;;;;;;;1.79;78.72;100222.98;1769417;78;21007;-53
2021/11/24 01:47:46;;;;;;;18.00;11.30;;;;;;;1.79;78.73;100227.41;1739569;80;21629;-52
2021/11/24 01:50:13;;;;;;;18.47;12.63;;;;;;;1.80;78.82;100228.73;1732917;81;21183;-53
2021/11/24 01:52:40;;;;;;;20.30;12.93;;;;;;;1.81;78.81;100225.64;1741529;80;21050;-52
2021/11/24 01:55:08;;;;;;;19.87;13.63;;;;;;;1.80;78.71;100230.51;1744082;80;21567;-52
2021/11/24 01:57:35;;;;;;;22.77;14.37;;;;;;;1.78;78.75;100232.31;1744909;81;22311;-52
2021/11/24 02:00:05;;;;;;;16.67;12.63;;;;;;;1.77;78.78;100236.73;1743296;80;21050;-52
2021/11/24 02:02:34;;;;;;;20.93;11.90;;;;;;;1.76;78.79;100229.66;1743986;80;21749;-53
2021/11/24 02:05:00;;;;;;;19.80;13.30;;;;;;;1.77;78.86;100233.20;1744740;81;21605;-52
2021/11/24 02:07:27;;;;;;;17.93;12.57;;;;;;;1.78;78.89;100238.50;1745244;81;22204;-52
2021/11/24 02:09:54;;;;;;;19.40;13.70;;;;;;;1.80;78.95;100237.14;1744225;81;21521;-53
2021/11/24 02:12:20;;;;;;;18.73;12.83;;;;;;;1.82;78.99;100240.68;1745195;80;21034;-52
2021/11/24 02:14:47;;;;;;;17.20;14.10;;;;;;;1.83;79.07;100238.47;1747520;81;21203;-52
2021/11/24 02:17:15;;;;;;;17.57;13.83;;;;;;;1.83;79.11;100240.68;1740379;80;21108;-52
2021/11/24 02:19:42;;;;;;;18.43;14.03;;;;;;;1.85;79.06;100240.23;1715508;82;21052;-52
2021/11/24 02:22:10;;;;;;;21.27;13.93;;;;;;;1.86;79.10;100237.14;1716596;82;21383;-53
2021/11/24 02:24:37;;;;;;;21.43;12.63;;;;;;;1.85;79.08;100237.58;1718439;82;20900;-51
2021/11/24 02:27:07;;;;;;;11.40;8.90;;;;;;;1.85;79.11;100244.22;1718795;82;21086;-51
2021/11/24 02:29:34;;;;;;;13.77;9.80;;;;;;;1.85;79.08;100242.00;1718811;82;20978;-53
2021/11/24 02:32:03;;;;;;;13.37;9.43;;;;;;;1.85;79.14;100238.02;1715854;82;20980;-52
2021/11/24 02:34:31;;;;;;;12.53;9.00;;;;;;;1.85;79.17;100236.70;1711392;82;21077;-52
2021/11/24 02:36:58;;;;;;;10.77;8.60;;;;;;;1.87;79.19;100237.09;1713314;82;21130;-52
2021/11/24 02:39:24;;;;;;;10.00;7.83;;;;;;;1.90;79.28;100230.91;1713902;82;21343;-52
2021/11/24 02:41:51;;;;;;;11.93;8.20;;;;;;;1.90;79.22;100230.91;1715870;82;21555;-52
2021/11/24 02:44:26;;;;;;;11.13;8.47;;;;;;;1.90;79.18;100249.48;1711684;82;21583;-52
2021/11/24 02:46:53;;;;;;;;;;;;;;;1.92;79.27;100249.04;1715867;82;21062;-52
2021/11/24 02:49:20;;;;;;;11.90;9.27;;;;;;;1.93;79.19;100259.22;1716159;82;20183;-53
2021/11/24 02:51:47;;;;;;;11.80;8.00;;;;;;;1.89;79.19;100260.98;1717064;82;21527;-52
2021/11/24 02:54:14;;;;;;;10.37;7.77;;;;;;;1.89;79.19;100262.31;1714470;82;21284;-52
2021/11/24 02:56:41;;;;;;;9.77;7.23;;;;;;;1.88;79.18;100262.76;1715865;82;21440;-52
2021/11/24 02:59:09;;;;;;;11.10;7.23;;;;;;;1.87;79.19;100266.30;1718135;82;21781;-52
2021/11/24 03:01:38;;;;;;;9.93;6.50;;;;;;;1.88;79.23;100268.52;1717548;82;21094;-52
2021/11/24 03:04:07;;;;;;;7.00;6.17;;;;;;;1.89;79.30;100265.86;1678176;82;21519;-51
2021/11/24 03:06:36;;;;;;;7.27;5.93;;;;;;;1.92;79.31;100270.72;1730476;82;20975;-52
2021/11/24 03:09:03;;;;;;;7.90;6.50;;;;;;;1.91;79.26;100265.86;1700441;82;21099;-52
2021/11/24 03:11:30;;;;;;;6.87;6.07;;;;;;;1.93;79.31;100265.85;1725131;82;21084;-52
2021/11/24 03:16:40;;;;;;;8.70;7.13;;;;;;;1.99;79.34;100265.81;1849925;75;26463;-52
2021/11/24 03:19:08;;;;;;;8.93;6.97;;;;;;;1.92;79.35;100278.24;1811859;77;20997;-52
2021/11/24 03:21:35;;;;;;;7.63;6.13;;;;;;;1.93;79.27;100273.81;1812379;77;21111;-52
2021/11/24 03:24:01;;;;;;;7.77;5.83;;;;;;;1.94;79.29;100266.30;1810327;77;21393;-52
2021/11/24 03:26:28;;;;;;;8.00;5.73;;;;;;;1.95;79.30;100271.60;1811997;77;21633;-52
2021/11/24 03:28:54;;;;;;;10.60;5.87;;;;;;;1.95;79.28;100274.70;1811057;77;21028;-52
2021/11/24 03:31:20;;;;;;;9.43;6.67;;;;;;;1.97;79.36;100280.41;1805688;77;21033;-52
2021/11/24 03:33:48;;;;;;;6.63;5.97;;;;;;;2.00;79.29;100284.84;1790133;77;21107;-52
2021/11/24 03:36:14;;;;;;;7.30;5.80;;;;;;;2.01;79.26;100282.62;1789404;77;21020;-53
2021/11/24 03:38:41;;;;;;;6.17;5.03;;;;;;;2.02;79.26;100291.91;1790511;77;21287;-52
2021/11/24 03:41:07;;;;;;;6.43;5.70;;;;;;;2.02;79.21;100281.73;1737166;80;21531;-52
2021/11/24 03:43:34;;;;;;;7.20;5.77;;;;;;;2.01;79.16;100287.48;1754695;79;21538;-52
2021/11/24 03:46:01;;;;;;;6.13;5.53;;;;;;;2.01;79.12;100291.47;1733133;79;21137;-52
2021/11/24 03:48:28;;;;;;;7.47;6.03;;;;;;;1.98;79.04;100290.15;1733372;80;21055;-53
2021/11/24 03:50:54;;;;;;;7.80;5.17;;;;;;;1.95;79.04;100291.95;1736942;79;21048;-52
2021/11/24 03:53:21;;;;;;;5.40;4.20;;;;;;;1.95;79.07;100300.80;1735279;79;21091;-52
2021/11/24 03:55:47;;;;;;;5.70;3.37;;;;;;;1.96;79.07;100299.03;1739115;79;21052;-52
2021/11/24 03:58:14;;;;;;;4.77;4.20;;;;;;;1.96;79.09;100299.89;1742466;79;21153;-53
2021/11/24 04:00:41;;;;;;;6.67;4.10;;;;;;;1.99;79.10;100296.34;1737612;79;21029;-52
2021/11/24 04:03:07;;;;;;;5.80;4.30;;;;;;;2.00;79.11;100296.78;1735395;79;21119;-52
2021/11/24 04:05:34;;;;;;;6.30;5.00;;;;;;;2.00;79.11;100301.66;1738440;79;21123;-53
2021/11/24 04:08:00;;;;;;;6.17;5.33;;;;;;;2.02;79.12;100296.34;1737313;79;21044;-52
2021/11/24 04:10:26;;;;;;;7.97;5.23;;;;;;;2.02;79.14;100296.34;1738429;79;21216;-52
2021/11/24 04:12:54;;;;;;;7.50;5.40;;;;;;;2.02;79.06;100292.36;1736309;79;21053;-52
2021/11/24 04:15:20;;;;;;;8.73;6.70;;;;;;;2.01;79.05;100300.77;1729990;79;21107;-52
2021/11/24 04:17:47;;;;;;;6.83;5.30;;;;;;;1.99;79.03;100305.64;1713798;81;21523;-52
2021/11/24 04:20:17;;;;;;;8.37;6.30;;;;;;;1.97;79.07;100315.37;1714811;81;21111;-52
2021/11/24 04:22:43;;;;;;;7.60;5.07;;;;;;;1.96;79.06;100309.18;1717468;81;21118;-52
2021/11/24 04:25:11;;;;;;;5.50;4.97;;;;;;;1.95;79.01;100321.16;1714008;81;21928;-52
2021/11/24 04:27:37;;;;;;;6.93;4.10;;;;;;;1.94;79.03;100314.08;1718829;81;20960;-52
2021/11/24 04:30:05;;;;;;;5.73;5.17;;;;;;;1.93;79.05;100316.30;1715934;81;21391;-52
2021/11/24 04:32:32;;;;;;;5.43;4.80;;;;;;;1.94;79.12;100316.73;1713840;81;20952;-52
2021/11/24 04:34:58;;;;;;;5.53;4.40;;;;;;;1.93;79.10;100318.51;1715941;81;21634;-53
2021/11/24 04:37:25;;;;;;;11.50;7.33;;;;;;;1.93;79.20;100313.64;1717131;81;21976;-52
2021/11/24 04:39:51;;;;;;;10.40;7.10;;;;;;;1.92;79.24;100315.41;1711743;81;20972;-52
2021/11/24 04:42:18;;;;;;;14.33;8.43;;;;;;;1.91;79.28;100309.66;1713635;81;21127;-52
2021/11/24 04:44:45;;;;;;;21.23;12.07;;;;;;;1.90;79.30;100310.10;1713652;81;21059;-52
2021/11/24 04:47:11;;;;;;;40.50;20.23;;;;;;;1.91;79.32;100305.67;1707757;81;21168;-52
2021/11/24 04:49:39;;;;;;;29.70;15.80;;;;;;;1.90;79.30;100311.87;1708017;81;21068;-52
2021/11/24 04:52:06;;;;;;;17.77;10.83;;;;;;;1.89;79.31;100312.75;1709492;81;21131;-52
2021/11/24 04:54:32;;;;;;;13.03;8.07;;;;;;;1.90;79.31;100311.87;1713789;81;21072;-52
2021/11/24 04:56:59;;;;;;;15.47;9.47;;;;;;;1.90;79.31;100311.43;1713158;81;21048;-52
2021/11/24 04:59:26;;;;;;;14.53;9.90;;;;;;;1.89;79.35;100304.34;1710154;81;21144;-53
2021/11/24 05:01:52;;;;;;;21.67;13.97;;;;;;;1.91;79.43;100303.02;1713741;81;21431;-52
2021/11/24 05:04:21;;;;;;;19.33;13.63;;;;;;;1.93;79.40;100316.30;1714919;81;21088;-53
2021/11/24 05:06:48;;;;;;;14.00;9.93;;;;;;;1.93;79.41;100317.17;1714548;81;21095;-52
2021/11/24 05:09:14;;;;;;;8.53;7.10;;;;;;;1.95;79.45;100326.47;1709466;81;21637;-52
2021/11/24 05:11:41;;;;;;;9.70;7.37;;;;;;;1.95;79.41;100326.47;1709005;81;21093;-53
2021/11/24 05:14:10;;;;;;;7.70;6.27;;;;;;;1.95;79.34;100335.32;1710417;81;21024;-52
2021/11/24 05:16:36;;;;;;;6.93;5.77;;;;;;;1.93;79.32;100326.91;1730845;81;21294;-52
2021/11/24 05:19:06;;;;;;;8.43;5.33;;;;;;;1.90;79.26;100335.32;1741336;81;21416;-52
2021/11/24 05:21:34;;;;;;;9.67;5.90;;;;;;;1.88;79.25;100335.77;1742130;81;21052;-52
2021/11/24 05:24:00;;;;;;;4.87;4.27;;;;;;;1.89;79.33;100335.32;1748776;80;21102;-52
2021/11/24 05:26:27;;;;;;;5.80;4.97;;;;;;;1.91;79.37;100333.55;1764564;78;20960;-52
2021/11/24 05:28:54;;;;;;;5.87;4.30;;;;;;;1.92;79.42;100343.73;1739154;80;21262;-52
2021/11/24 05:31:21;;;;;;;6.57;4.57;;;;;;;1.93;79.42;100343.73;1737530;80;21052;-53
2021/11/24 05:33:48;;;;;;;5.63;4.70;;;;;;;1.95;79.49;100343.73;1737908;80;21036;-52
2021/11/24 05:36:16;;;;;;;6.87;4.87;;;;;;;1.97;79.50;100347.23;1742723;80;21128;-52
2021/11/24 05:41:22;;;;;;;6.30;5.70;;;;;;;2.00;79.47;100350.77;1846886;75;26436;-53
2021/11/24 05:43:53;;;;;;;7.00;5.87;;;;;;;1.95;79.43;100355.67;1810787;77;21538;-52
2021/11/24 05:46:43;;;;;;;8.50;6.27;;;;;;;1.94;79.48;100353.46;1807567;77;22785;-53
2021/11/24 05:48:56;;;;;;;7.47;6.00;;;;;;;1.94;79.46;100360.10;1768727;78;21086;-52
2021/11/24 05:51:22;;;;;;;9.27;5.83;;;;;;;1.94;79.52;100357.89;1773363;78;21020;-53
2021/11/24 05:53:49;;;;;;;11.40;7.33;;;;;;;1.92;79.57;100359.22;1756536;78;21279;-53
2021/11/24 05:56:15;;;;;;;11.23;8.00;;;;;;;1.94;79.66;100358.77;1759900;79;21345;-52
2021/11/24 05:58:42;;;;;;;9.63;6.67;;;;;;;1.97;79.77;100361.39;1763005;79;21296;-52
2021/11/24 06:01:08;;;;;;;10.50;6.90;;;;;;;2.00;79.77;100361.39;1757537;79;21499;-52
2021/11/24 06:03:35;;;;;;;9.50;6.93;;;;;;;2.01;79.81;100364.49;1763700;79;21060;-52
2021/11/24 06:06:01;;;;;;;8.67;7.00;;;;;;;2.03;79.79;100362.72;1759013;78;21167;-52
2021/11/24 06:08:28;;;;;;;7.43;6.57;;;;;;;2.05;79.83;100364.02;1761153;78;21054;-53
2021/11/24 06:10:55;;;;;;;9.67;7.83;;;;;;;2.05;79.85;100361.36;1756466;79;21144;-53
2021/11/24 06:13:22;;;;;;;8.67;5.93;;;;;;;2.04;79.88;100357.82;1758529;78;21037;-52
2021/11/24 06:15:48;;;;;;;6.37;5.13;;;;;;;2.05;79.87;100360.91;1762276;78;21038;-52
2021/11/24 06:18:14;;;;;;;9.83;6.67;;;;;;;2.05;79.86;100365.34;1761684;79;21520;-52
2021/11/24 06:20:41;;;;;;;8.20;5.80;;;;;;;2.06;79.88;100370.66;1755582;79;21349;-52
2021/11/24 06:23:08;;;;;;;7.73;6.10;;;;;;;2.08;79.99;100370.21;1757667;78;21117;-52
2021/11/24 06:25:36;;;;;;;9.60;6.40;;;;;;;2.09;79.98;100368.00;1759228;79;21500;-52
2021/11/24 06:28:03;;;;;;;7.60;5.93;;;;;;;2.10;79.99;100370.20;1759888;79;21030;-53
2021/11/24 06:30:30;;;;;;;9.00;6.33;;;;;;;2.10;80.04;100367.11;1757717;79;21068;-52
2021/11/24 06:32:57;;;;;;;8.57;7.07;;;;;;;2.14;80.09;100377.25;1745338;79;21343;-52
2021/11/24 06:35:24;;;;;;;9.53;7.10;;;;;;;2.15;80.04;100379.02;1737122;79;21108;-52
2021/11/24 06:37:50;;;;;;;10.93;7.77;;;;;;;2.17;80.09;100382.13;1737029;79;21517;-52
2021/11/24 06:40:17;;;;;;;9.67;7.23;;;;;;;2.17;80.08;100375.48;1738881;79;21061;-53
2021/11/24 06:42:44;;;;;;;9.40;7.10;;;;;;;2.20;80.05;100385.22;1738300;79;21118;-52
2021/11/24 06:45:11;;;;;;;10.73;7.33;;;;;;;2.20;80.08;100384.78;1741137;79;21051;-52
2021/11/24 06:47:39;;;;;;;11.97;7.93;;;;;;;2.20;80.03;100380.80;1738843;79;21088;-53
2021/11/24 06:50:07;;;;;;;13.60;6.47;;;;;;;2.21;80.00;100383.01;1739343;79;21031;-52
2021/11/24 06:52:34;;;;;;;10.07;6.13;;;;;;;2.21;80.01;100383.01;1743562;79;20914;-52
2021/11/24 06:55:00;;;;;;;11.87;7.30;;;;;;;2.22;80.05;100386.07;1740674;79;20977;-52
2021/11/24 06:57:27;;;;;;;7.27;6.37;;;;;;;2.22;80.08;100390.94;1736788;79;21060;-52
2021/11/24 06:59:53;;;;;;;10.50;6.30;;;;;;;2.23;80.08;100388.73;1734307;79;21149;-52
2021/11/24 07:02:20;;;;;;;11.33;7.97;;;;;;;2.23;80.15;100394.04;1740433;79;21060;-52
2021/11/24 07:04:46;;;;;;;7.67;6.47;;;;;;;2.26;80.23;100391.83;1739306;79;21476;-52
2021/11/24 07:07:13;;;;;;;9.17;7.30;;;;;;;2.26;80.23;100398.02;1736557;79;21473;-53
2021/11/24 07:09:40;;;;;;;9.33;7.60;;;;;;;2.27;80.18;100398.91;1736009;80;21064;-53
2021/11/24 07:12:09;;;;;;;8.60;6.77;;;;;;;2.27;80.19;100402.45;1741588;79;22752;-53
2021/11/24 07:14:36;;;;;;;7.97;6.50;;;;;;;2.28;80.21;100395.36;1741245;79;22256;-53
2021/11/24 07:17:03;;;;;;;11.33;6.07;;;;;;;2.30;80.14;100402.00;1735454;79;21479;-53
2021/11/24 07:19:29;;;;;;;9.60;6.57;;;;;;;2.32;80.20;100402.86;1740298;79;21134;-53
2021/11/24 07:21:56;;;;;;;7.37;5.37;;;;;;;2.35;80.22;100393.11;1737359;79;21061;-53
2021/11/24 07:24:23;;;;;;;10.87;6.90;;;;;;;2.40;80.27;100399.27;1740522;79;21133;-53
2021/11/24 07:26:49;;;;;;;10.77;6.27;;;;;;;2.45;80.22;100401.92;1738638;79;21040;-53
2021/11/24 07:29:16;;;;;;;7.47;5.60;;;;;;;2.47;80.15;100398.79;1738864;79;21053;-53
2021/11/24 07:31:43;;;;;;;10.43;6.23;;;;;;;2.49;80.07;100404.54;1739871;79;20882;-53
2021/11/24 07:34:13;;;;;;;12.20;7.57;;;;;;;2.51;79.98;100403.21;1743132;79;20973;-53
2021/11/24 07:36:40;;;;;;;10.97;7.37;;;;;;;2.52;80.02;100402.33;1739321;79;21084;-53
2021/11/24 07:39:07;;;;;;;12.23;7.57;;;;;;;2.55;80.05;100408.97;1739649;79;20917;-53
2021/11/24 07:41:33;;;;;;;8.87;6.60;;;;;;;2.57;80.00;100410.70;1741926;79;20953;-53
2021/11/24 07:44:00;;;;;;;14.73;7.23;;;;;;;2.61;79.94;100408.92;1739377;79;20916;-53
2021/11/24 07:46:26;;;;;;;10.97;6.07;;;;;;;2.65;79.86;100411.98;1745368;79;20894;-53
2021/11/24 07:48:52;;;;;;;9.53;7.27;;;;;;;2.67;79.79;100410.20;1744206;79;22391;-53
2021/11/24 07:51:19;;;;;;;9.73;7.63;;;;;;;2.71;79.74;100410.64;1740112;79;20889;-53
2021/11/24 07:53:46;;;;;;;14.33;8.13;;;;;;;2.76;79.65;100408.82;1745404;79;20886;-53
2021/11/24 07:56:12;;;;;;;11.77;8.40;;;;;;;2.82;79.58;100410.55;1742354;79;20906;-53
2021/11/24 07:58:42;;;;;;;15.80;8.30;;;;;;;2.87;79.47;100410.09;1739596;79;20968;-54
2021/11/24 08:01:09;;;;;;;11.47;7.40;;;;;;;2.91;79.46;100409.16;1742207;79;21718;-53
2021/11/24 08:03:35;;;;;;;10.33;6.90;;;;;;;2.94;79.36;100412.69;1742287;79;20894;-53
2021/11/24 08:06:02;;;;;;;10.90;7.40;;;;;;;2.98;79.38;100409.10;1742972;79;20894;-54
2021/11/24 08:08:30;;;;;;;6.83;5.83;;;;;;;3.03;79.38;100405.98;1741132;79;20909;-54
2021/11/24 08:10:58;;;;;;;6.90;4.77;;;;;;;3.09;79.38;100409.03;1741679;79;20905;-53
2021/11/24 08:13:26;;;;;;;8.10;4.37;;;;;;;3.16;79.33;100416.06;1736931;79;21091;-54
2021/11/24 08:15:53;;;;;;;8.40;4.70;;;;;;;3.20;79.20;100414.28;1742783;80;21056;-53
2021/11/24 08:18:20;;;;;;;5.37;4.27;;;;;;;3.27;79.24;100419.98;1717934;81;21048;-53
2021/11/24 08:20:46;;;;;;;6.30;4.37;;;;;;;3.34;79.16;100423.90;1734538;79;21048;-53
2021/11/24 08:23:12;;;;;;;5.27;4.57;;;;;;;3.43;79.12;100417.17;1740720;79;21041;-54
2021/11/24 08:25:39;;;;;;;8.07;5.30;;;;;;;3.51;78.90;100424.20;1742933;79;21142;-53
2021/11/24 08:28:06;;;;;;;7.23;4.87;;;;;;;3.60;78.76;100425.45;1744974;79;21443;-53
2021/11/24 08:30:32;;;;;;;5.00;4.43;;;;;;;3.63;78.56;100417.00;1696717;82;21040;-54
2021/11/24 08:32:59;;;;;;;11.20;7.80;;;;;;;3.69;78.48;100420.92;1738289;79;21120;-53
2021/11/24 08:35:26;;;;;;;10.40;7.10;;;;;;;3.73;78.38;100420.01;1741469;79;20957;-53
2021/11/24 08:37:52;;;;;;;6.10;5.53;;;;;;;3.74;78.26;100412.42;1741802;79;21079;-53
2021/11/24 08:40:20;;;;;;;6.93;6.17;;;;;;;3.78;78.09;100418.17;1741535;79;21107;-53
2021/11/24 08:42:47;;;;;;;7.87;6.20;;;;;;;3.78;77.98;100412.84;1757785;80;21062;-53
2021/11/24 08:45:13;;;;;;;8.87;6.23;;;;;;;3.82;77.87;100410.16;1754980;79;21373;-53
2021/11/24 08:47:41;;;;;;;5.90;5.03;;;;;;;3.83;77.81;100408.78;1757704;80;21117;-54
2021/11/24 08:50:11;;;;;;;6.30;5.30;;;;;;;3.86;77.78;100403.89;1755066;80;20991;-54
2021/11/24 08:52:38;;;;;;;5.83;5.23;;;;;;;3.89;77.71;100399.87;1760472;80;20936;-54
2021/11/24 08:55:06;;;;;;;6.27;5.67;;;;;;;3.90;77.63;100393.65;1758921;80;20963;-54
2021/11/24 08:57:35;;;;;;;6.53;5.70;;;;;;;3.92;77.68;100387.83;1757343;80;21086;-54
2021/11/24 09:00:06;;;;;;;8.37;5.67;;;;;;;3.94;77.65;100387.38;1758155;80;21050;-53
2021/11/24 09:02:33;;;;;;;4.73;4.30;;;;;;;3.95;77.63;100390.47;1760821;80;21500;-53
2021/11/24 09:04:59;;;;;;;5.63;4.83;;;;;;;3.98;77.58;100390.00;1756113;78;21074;-53
2021/11/24 09:07:26;;;;;;;5.50;4.30;;;;;;;4.00;77.57;100388.63;1765366;80;21130;-54
2021/11/24 09:09:53;;;;;;;4.57;3.93;;;;;;;4.04;77.60;100393.03;1755437;80;21121;-52
2021/11/24 09:12:20;;;;;;;5.97;4.70;;;;;;;4.08;77.62;100392.96;1757589;79;21027;-52
2021/11/24 09:14:46;;;;;;;4.50;3.83;;;;;;;4.11;77.60;100394.27;1760480;80;21130;-52
2021/11/24 09:17:13;;;;;;;6.13;4.50;;;;;;;4.16;77.58;100390.23;1757749;79;21085;-52
2021/11/24 09:19:40;;;;;;;5.17;4.63;;;;;;;4.17;77.55;100390.19;1758677;80;21072;-52
2021/11/24 09:22:07;;;;;;;5.07;4.03;;;;;;;4.21;77.46;100392.38;1756546;80;21168;-52
2021/11/24 09:24:34;;;;;;;8.47;4.90;;;;;;;4.23;77.32;100391.92;1758558;80;21567;-52
2021/11/24 09:27:12;;;;;;;5.03;3.77;;;;;;;4.23;77.17;100391.92;1756394;80;21876;-52
2021/11/24 09:29:30;;;;;;;6.23;3.83;;;;;;;4.23;77.04;100393.25;1754750;78;21081;-53
2021/11/24 09:31:56;;;;;;;4.43;3.53;;;;;;;4.24;76.96;100400.34;1755354;79;21684;-51
2021/11/24 09:34:23;;;;;;;3.60;2.50;;;;;;;4.25;76.97;100396.79;1754159;80;21415;-52
2021/11/24 09:36:50;;;;;;;3.20;2.77;;;;;;;4.30;76.89;100392.72;1758315;80;21050;-51
2021/11/24 09:39:16;;;;;;;3.37;1.90;;;;;;;4.35;76.81;100389.53;1756788;79;21201;-52
2021/11/24 09:41:45;;;;;;;4.93;2.27;;;;;;;4.37;76.77;100389.06;1747903;79;21118;-51
2021/11/24 09:44:12;;;;;;;4.83;2.20;;;;;;;4.38;76.61;100395.72;1741803;79;21421;-51
2021/11/24 09:46:44;;;;;;;3.13;2.77;;;;;;;4.41;76.45;100391.69;1740901;79;21507;-52
2021/11/24 09:49:10;;;;;;;2.43;1.77;;;;;;;4.44;76.29;100400.08;1740371;79;21040;-51
2021/11/24 09:51:37;;;;;;;3.07;2.57;;;;;;;4.42;76.08;100391.24;1739090;79;21040;-52
2021/11/24 09:54:04;;;;;;;3.03;1.97;;;;;;;4.42;76.04;100392.57;1737892;79;21972;-52
2021/11/24 09:56:31;;;;;;;2.27;1.63;;;;;;;4.43;75.86;100392.52;1746764;79;21479;-52
2021/11/24 09:58:58;;;;;;;2.77;1.80;;;;;;;4.44;75.74;100392.08;1746859;79;21052;-52
2021/11/24 10:01:24;;;;;;;3.20;1.77;;;;;;;4.45;75.56;100393.84;1738725;79;21037;-51
2021/11/24 10:03:50;;;;;;;1.97;1.50;;;;;;;4.46;75.62;100389.83;1745830;79;21103;-51
2021/11/24 10:06:17;;;;;;;2.47;2.17;;;;;;;4.48;75.51;100400.03;1739012;79;21111;-52
2021/11/24 10:08:43;;;;;;;4.10;2.10;;;;;;;4.46;75.29;100393.83;1738272;79;21064;-52
2021/11/24 10:11:11;;;;;;;1.90;1.63;;;;;;;4.47;75.17;100389.38;1740565;79;21101;-52
2021/11/24 10:13:39;;;;;;;3.10;2.33;;;;;;;4.44;75.01;100393.41;1741204;79;21103;-52
2021/11/24 10:16:27;;;;;;;3.00;2.33;;;;;;;4.40;74.87;100390.38;1740482;79;21008;-52
2021/11/24 10:19:09;;;;;;;3.00;1.93;;;;;;;4.39;74.95;100388.16;1740772;79;20926;-52
2021/11/24 10:21:42;;;;;;;2.57;1.60;;;;;;;4.41;75.03;100387.69;1742743;79;21444;-55
2021/11/24 10:24:09;;;;;;;2.50;1.80;;;;;;;4.44;75.01;100389.41;1722287;79;21048;-55
2021/11/24 10:26:39;;;;;;;2.37;2.17;;;;;;;4.45;75.09;100384.06;1738463;79;21083;-55
2021/11/24 10:29:09;;;;;;;2.10;1.90;;;;;;;4.48;75.20;100385.81;1738310;79;21081;-52
2021/11/24 10:31:48;;;;;;;3.37;2.27;;;;;;;4.50;75.12;100385.36;1744193;79;20975;-52
2021/11/24 10:34:30;;;;;;;2.47;2.10;;;;;;;4.51;75.13;100391.09;1734862;79;21112;-52
2021/11/24 10:37:06;;;;;;;2.67;2.37;;;;;;;4.51;75.13;100389.30;1740551;79;21100;-52
2021/11/24 10:39:38;;;;;;;1.80;1.70;;;;;;;4.52;75.07;100392.85;1741599;79;20971;-52
2021/11/24 10:42:09;;;;;;;1.80;1.60;;;;;;;4.52;75.00;100387.07;1754651;79;21134;-52
2021/11/24 10:44:36;;;;;;;2.00;1.70;;;;;;;4.52;75.03;100383.08;1741325;79;21609;-52
2021/11/24 10:47:06;;;;;;;4.87;1.70;;;;;;;4.53;75.04;100390.63;1736354;79;21721;-52
2021/11/24 10:49:42;;;;;;;3.13;2.03;;;;;;;4.53;75.01;100387.95;1740685;79;22196;-52
2021/11/24 10:52:27;;;;;;;1.77;1.67;;;;;;;4.53;75.02;100386.63;1742177;79;20925;-52
2021/11/24 10:55:11;;;;;;;;;;;;;;;4.50;74.99;100381.36;1739623;79;22057;-52
2021/11/24 10:57:40;;;;;;;2.70;1.70;;;;;;;4.47;74.96;100384.94;1739140;79;20145;-51
2021/11/24 11:00:11;;;;;;;2.83;1.93;;;;;;;4.45;75.03;100380.52;1739065;79;20926;-51
2021/11/24 11:02:42;;;;;;;4.67;2.90;;;;;;;4.44;75.17;100379.63;1739108;79;20985;-52
2021/11/24 11:05:24;;;;;;;2.63;2.17;;;;;;;4.44;75.33;100370.30;1736070;79;22052;-52
2021/11/24 11:07:55;;;;;;;2.60;2.40;;;;;;;4.45;75.43;100372.06;1736905;79;21068;-52
2021/11/24 11:10:37;;;;;;;2.83;2.20;;;;;;;4.48;75.55;100372.48;1735048;79;20957;-52
2021/11/24 11:13:14;;;;;;;2.77;2.57;;;;;;;4.52;75.62;100379.52;1739241;79;20933;-53
2021/11/24 11:15:52;;;;;;;4.23;3.33;;;;;;;4.58;75.70;100370.58;1743688;79;21448;-52
2021/11/24 11:18:26;;;;;;;3.20;2.50;;;;;;;4.61;75.74;100370.06;1738573;79;20993;-51
2021/11/24 11:21:00;;;;;;;4.10;3.02;;;;;;;4.64;75.60;100369.15;1739880;79;21092;-51
2021/11/24 11:23:34;;;;;;;3.33;2.45;;;;;;;4.67;75.77;100367.33;1740682;79;20969;-51
2021/11/24 11:26:15;;;;;;;3.15;2.83;;;;;;;4.68;75.77;100361.06;1741185;79;20980;-53
2021/11/24 11:28:53;;;;;;;5.30;3.10;;;;;;;4.69;75.71;100357.95;1743023;79;21438;-52
2021/11/24 11:31:22;;;;;;;6.07;2.73;;;;;;;4.69;75.73;100361.95;1742524;79;20933;-51
2021/11/24 11:33:55;;;;;;;4.37;3.00;;;;;;;4.69;75.72;100364.62;1739823;79;21094;-51
2021/11/24 11:36:23;;;;;;;3.83;3.02;;;;;;;4.70;75.60;100360.60;1742385;79;21598;-51